sensor_id;sensor_type;location;lat;lon;timestamp;noise_LAeq;noise_LA_min;noise_LA_max;noise_LA01;noise_LA95
72805;Laerm;60920;48.748;19.142;2023-07-13T00:01:42;31.23;29.67;37.48;;
72805;Laerm;60920;48.748;19.142;2023-07-13T00:04:08;31.09;29.53;32.46;;
72805;Laerm;60920;48.748;19.142;2023-07-13T00:06:33;31.28;29.65;34.06;;
72805;Laerm;60920;48.748;19.142;2023-07-13T00:09:00;31.50;29.65;36.22;;
72805;Laerm;60920;48.748;19.142;2023-07-13T00:11:26;31.19;29.87;32.73;;
72805;Laerm;60920;48.748;19.142;2023-07-13T00:13:52;31.24;29.62;34.33;;
72805;Laerm;60920;48.748;19.142;2023-07-13T00:16:17;30.99;29.55;32.61;;
72805;Laerm;60920;48.748;19.142;2023-07-13T00:18:44;31.13;29.61;32.48;;
72805;Laerm;60920;48.748;19.142;2023-07-13T00:21:09;31.33;29.83;34.26;;
72805;Laerm;60920;48.748;19.142;2023-07-13T00:23:35;31.29;29.68;34.16;;
72805;Laerm;60920;48.748;19.142;2023-07-13T00:26:01;31.31;29.66;33.71;;
72805;Laerm;60920;48.748;19.142;2023-07-13T00:28:27;31.17;29.39;32.94;;
72805;Laerm;60920;48.748;19.142;2023-07-13T00:30:52;31.17;29.93;32.47;;
72805;Laerm;60920;48.748;19.142;2023-07-13T00:33:17;31.14;29.71;32.43;;
72805;Laerm;60920;48.748;19.142;2023-07-13T00:35:43;31.16;29.75;32.67;;
72805;Laerm;60920;48.748;19.142;2023-07-13T00:38:09;31.23;29.83;33.26;;
72805;Laerm;60920;48.748;19.142;2023-07-13T00:40:34;31.45;30.07;35.02;;
72805;Laerm;60920;48.748;19.142;2023-07-13T00:42:59;31.27;29.93;32.66;;
72805;Laerm;60920;48.748;19.142;2023-07-13T00:47:50;31.67;30.14;34.26;;
72805;Laerm;60920;48.748;19.142;2023-07-13T00:50:16;31.63;30.10;35.15;;
72805;Laerm;60920;48.748;19.142;2023-07-13T00:52:43;31.93;30.22;36.37;;
72805;Laerm;60920;48.748;19.142;2023-07-13T00:55:09;31.76;30.07;35.53;;
72805;Laerm;60920;48.748;19.142;2023-07-13T00:57:36;31.79;30.14;35.61;;
72805;Laerm;60920;48.748;19.142;2023-07-13T01:00:03;31.85;30.20;35.03;;
72805;Laerm;60920;48.748;19.142;2023-07-13T01:02:35;31.75;29.76;34.10;;
72805;Laerm;60920;48.748;19.142;2023-07-13T01:05:08;31.55;30.00;34.10;;
72805;Laerm;60920;48.748;19.142;2023-07-13T01:07:34;31.54;30.01;34.18;;
72805;Laerm;60920;48.748;19.142;2023-07-13T01:09:59;31.59;29.89;34.01;;
72805;Laerm;60920;48.748;19.142;2023-07-13T01:12:25;31.61;30.05;35.23;;
72805;Laerm;60920;48.748;19.142;2023-07-13T01:14:56;31.53;30.07;32.77;;
72805;Laerm;60920;48.748;19.142;2023-07-13T01:17:21;31.66;29.78;33.51;;
72805;Laerm;60920;48.748;19.142;2023-07-13T01:19:47;31.87;30.16;34.74;;
72805;Laerm;60920;48.748;19.142;2023-07-13T01:22:14;31.71;29.94;33.31;;
72805;Laerm;60920;48.748;19.142;2023-07-13T01:24:40;31.76;30.41;33.06;;
72805;Laerm;60920;48.748;19.142;2023-07-13T01:27:06;32.00;30.54;34.18;;
72805;Laerm;60920;48.748;19.142;2023-07-13T01:29:32;31.99;30.24;34.53;;
72805;Laerm;60920;48.748;19.142;2023-07-13T01:31:58;31.99;30.69;33.50;;
72805;Laerm;60920;48.748;19.142;2023-07-13T01:34:25;32.08;30.63;33.72;;
72805;Laerm;60920;48.748;19.142;2023-07-13T01:36:50;32.11;30.67;33.74;;
72805;Laerm;60920;48.748;19.142;2023-07-13T01:39:22;32.13;30.34;34.44;;
72805;Laerm;60920;48.748;19.142;2023-07-13T01:41:47;31.87;30.41;33.35;;
72805;Laerm;60920;48.748;19.142;2023-07-13T01:44:13;31.99;30.49;33.36;;
72805;Laerm;60920;48.748;19.142;2023-07-13T01:46:39;32.19;30.50;36.06;;
72805;Laerm;60920;48.748;19.142;2023-07-13T01:49:04;32.19;30.56;36.17;;
72805;Laerm;60920;48.748;19.142;2023-07-13T01:51:29;32.20;30.51;34.91;;
72805;Laerm;60920;48.748;19.142;2023-07-13T01:53:54;32.53;30.47;34.79;;
72805;Laerm;60920;48.748;19.142;2023-07-13T01:56:20;32.31;30.87;37.95;;
72805;Laerm;60920;48.748;19.142;2023-07-13T01:58:45;32.43;30.93;35.75;;
72805;Laerm;60920;48.748;19.142;2023-07-13T02:01:11;32.28;30.88;33.90;;
72805;Laerm;60920;48.748;19.142;2023-07-13T02:03:36;32.24;30.56;33.77;;
72805;Laerm;60920;48.748;19.142;2023-07-13T02:06:01;32.22;30.63;35.74;;
72805;Laerm;60920;48.748;19.142;2023-07-13T02:08:27;31.96;30.42;34.02;;
72805;Laerm;60920;48.748;19.142;2023-07-13T02:10:52;32.00;30.34;36.41;;
72805;Laerm;60920;48.748;19.142;2023-07-13T02:13:17;32.18;30.67;37.40;;
72805;Laerm;60920;48.748;19.142;2023-07-13T02:15:42;31.94;30.37;33.77;;
72805;Laerm;60920;48.748;19.142;2023-07-13T02:18:08;32.12;30.52;35.05;;
72805;Laerm;60920;48.748;19.142;2023-07-13T02:20:33;31.91;30.36;33.56;;
72805;Laerm;60920;48.748;19.142;2023-07-13T02:22:58;31.97;30.25;39.20;;
72805;Laerm;60920;48.748;19.142;2023-07-13T02:25:24;31.95;30.36;33.59;;
72805;Laerm;60920;48.748;19.142;2023-07-13T02:27:50;32.20;30.60;36.59;;
72805;Laerm;60920;48.748;19.142;2023-07-13T02:30:15;32.37;30.70;34.78;;
72805;Laerm;60920;48.748;19.142;2023-07-13T02:32:41;32.16;30.46;34.14;;
72805;Laerm;60920;48.748;19.142;2023-07-13T02:35:06;32.54;30.63;39.40;;
72805;Laerm;60920;48.748;19.142;2023-07-13T02:37:31;32.82;30.76;38.61;;
72805;Laerm;60920;48.748;19.142;2023-07-13T02:39:57;32.81;31.04;39.06;;
72805;Laerm;60920;48.748;19.142;2023-07-13T02:42:22;33.00;31.26;37.06;;
72805;Laerm;60920;48.748;19.142;2023-07-13T02:44:48;33.08;31.29;36.32;;
72805;Laerm;60920;48.748;19.142;2023-07-13T02:47:15;33.12;31.15;38.06;;
72805;Laerm;60920;48.748;19.142;2023-07-13T02:49:41;33.04;30.87;39.56;;
72805;Laerm;60920;48.748;19.142;2023-07-13T02:52:06;32.89;31.17;36.66;;
72805;Laerm;60920;48.748;19.142;2023-07-13T02:54:32;32.75;30.87;36.68;;
72805;Laerm;60920;48.748;19.142;2023-07-13T02:56:57;33.15;30.87;39.44;;
72805;Laerm;60920;48.748;19.142;2023-07-13T02:59:23;33.09;30.67;37.15;;
72805;Laerm;60920;48.748;19.142;2023-07-13T03:01:48;32.86;30.91;36.48;;
72805;Laerm;60920;48.748;19.142;2023-07-13T03:04:13;33.00;30.90;36.93;;
72805;Laerm;60920;48.748;19.142;2023-07-13T03:06:39;32.89;31.09;35.93;;
72805;Laerm;60920;48.748;19.142;2023-07-13T03:09:04;32.66;30.83;37.42;;
72805;Laerm;60920;48.748;19.142;2023-07-13T03:11:30;33.16;30.63;45.29;;
72805;Laerm;60920;48.748;19.142;2023-07-13T03:13:56;33.66;30.23;44.71;;
72805;Laerm;60920;48.748;19.142;2023-07-13T03:16:21;32.50;30.73;35.93;;
72805;Laerm;60920;48.748;19.142;2023-07-13T03:18:47;32.54;30.71;36.55;;
72805;Laerm;60920;48.748;19.142;2023-07-13T03:21:13;33.07;30.74;37.46;;
72805;Laerm;60920;48.748;19.142;2023-07-13T03:23:39;32.85;30.90;39.08;;
72805;Laerm;60920;48.748;19.142;2023-07-13T03:26:08;32.72;31.08;41.12;;
72805;Laerm;60920;48.748;19.142;2023-07-13T03:28:34;32.65;31.01;38.54;;
72805;Laerm;60920;48.748;19.142;2023-07-13T03:31:00;33.18;31.14;40.73;;
72805;Laerm;60920;48.748;19.142;2023-07-13T03:33:25;33.34;31.30;41.01;;
72805;Laerm;60920;48.748;19.142;2023-07-13T03:35:51;33.43;31.25;44.75;;
72805;Laerm;60920;48.748;19.142;2023-07-13T03:38:16;33.11;31.33;35.53;;
72805;Laerm;60920;48.748;19.142;2023-07-13T03:40:42;33.15;31.49;35.44;;
72805;Laerm;60920;48.748;19.142;2023-07-13T03:43:07;33.27;31.41;38.63;;
72805;Laerm;60920;48.748;19.142;2023-07-13T03:45:32;33.38;31.58;44.65;;
72805;Laerm;60920;48.748;19.142;2023-07-13T03:47:58;33.21;31.27;36.19;;
72805;Laerm;60920;48.748;19.142;2023-07-13T03:50:23;33.82;31.37;40.67;;
72805;Laerm;60920;48.748;19.142;2023-07-13T03:52:48;32.87;31.22;36.47;;
72805;Laerm;60920;48.748;19.142;2023-07-13T03:55:13;32.84;31.13;34.81;;
72805;Laerm;60920;48.748;19.142;2023-07-13T03:57:39;32.92;31.35;38.99;;
72805;Laerm;60920;48.748;19.142;2023-07-13T04:00:04;32.85;31.14;34.78;;
72805;Laerm;60920;48.748;19.142;2023-07-13T04:02:31;32.83;31.23;38.74;;
72805;Laerm;60920;48.748;19.142;2023-07-13T04:04:56;32.53;30.73;34.90;;
72805;Laerm;60920;48.748;19.142;2023-07-13T04:07:21;32.81;31.21;35.38;;
72805;Laerm;60920;48.748;19.142;2023-07-13T04:09:47;32.97;30.90;37.58;;
72805;Laerm;60920;48.748;19.142;2023-07-13T04:12:12;32.68;30.89;36.37;;
72805;Laerm;60920;48.748;19.142;2023-07-13T04:14:38;32.59;30.73;35.16;;
72805;Laerm;60920;48.748;19.142;2023-07-13T04:17:03;32.69;31.09;35.55;;
72805;Laerm;60920;48.748;19.142;2023-07-13T04:19:29;32.70;30.71;36.89;;
72805;Laerm;60920;48.748;19.142;2023-07-13T04:21:54;32.76;30.93;36.81;;
72805;Laerm;60920;48.748;19.142;2023-07-13T04:24:19;32.59;30.57;35.01;;
72805;Laerm;60920;48.748;19.142;2023-07-13T04:26:44;32.78;30.93;36.50;;
72805;Laerm;60920;48.748;19.142;2023-07-13T04:29:10;32.68;30.62;36.99;;
72805;Laerm;60920;48.748;19.142;2023-07-13T04:31:35;32.63;30.93;35.89;;
72805;Laerm;60920;48.748;19.142;2023-07-13T04:34:00;32.62;30.52;35.72;;
72805;Laerm;60920;48.748;19.142;2023-07-13T04:36:26;32.54;30.86;34.80;;
72805;Laerm;60920;48.748;19.142;2023-07-13T04:38:52;32.39;30.54;35.60;;
72805;Laerm;60920;48.748;19.142;2023-07-13T04:41:17;32.44;30.29;37.74;;
72805;Laerm;60920;48.748;19.142;2023-07-13T04:43:42;32.69;30.65;37.45;;
72805;Laerm;60920;48.748;19.142;2023-07-13T04:46:10;32.60;30.30;36.70;;
72805;Laerm;60920;48.748;19.142;2023-07-13T04:48:36;32.93;30.92;36.69;;
72805;Laerm;60920;48.748;19.142;2023-07-13T04:51:02;32.84;29.96;37.67;;
72805;Laerm;60920;48.748;19.142;2023-07-13T04:53:28;32.11;30.20;36.30;;
72805;Laerm;60920;48.748;19.142;2023-07-13T04:55:53;32.25;29.77;37.54;;
72805;Laerm;60920;48.748;19.142;2023-07-13T04:58:19;32.47;30.09;40.53;;
72805;Laerm;60920;48.748;19.142;2023-07-13T05:00:44;32.28;30.21;36.21;;
72805;Laerm;60920;48.748;19.142;2023-07-13T05:03:09;35.89;30.84;50.14;;
72805;Laerm;60920;48.748;19.142;2023-07-13T05:05:35;32.59;30.43;37.96;;
72805;Laerm;60920;48.748;19.142;2023-07-13T05:08:00;32.71;30.58;36.32;;
72805;Laerm;60920;48.748;19.142;2023-07-13T05:10:26;32.11;30.41;35.03;;
72805;Laerm;60920;48.748;19.142;2023-07-13T05:12:51;32.07;30.11;36.29;;
72805;Laerm;60920;48.748;19.142;2023-07-13T05:15:16;31.97;30.37;34.84;;
72805;Laerm;60920;48.748;19.142;2023-07-13T05:17:46;32.12;30.12;35.11;;
72805;Laerm;60920;48.748;19.142;2023-07-13T05:20:11;32.28;29.82;37.09;;
72805;Laerm;60920;48.748;19.142;2023-07-13T05:22:36;31.76;29.80;33.97;;
72805;Laerm;60920;48.748;19.142;2023-07-13T05:25:04;31.91;29.94;34.95;;
72805;Laerm;60920;48.748;19.142;2023-07-13T05:27:29;31.79;29.77;36.22;;
72805;Laerm;60920;48.748;19.142;2023-07-13T05:29:55;32.36;29.95;36.22;;
72805;Laerm;60920;48.748;19.142;2023-07-13T05:32:21;32.62;30.15;40.53;;
72805;Laerm;60920;48.748;19.142;2023-07-13T05:34:46;32.19;29.87;35.80;;
72805;Laerm;60920;48.748;19.142;2023-07-13T05:37:11;32.37;30.22;46.31;;
72805;Laerm;60920;48.748;19.142;2023-07-13T05:39:36;32.04;30.08;35.64;;
72805;Laerm;60920;48.748;19.142;2023-07-13T05:42:02;31.60;29.79;34.75;;
72805;Laerm;60920;48.748;19.142;2023-07-13T05:44:27;31.78;29.37;39.12;;
72805;Laerm;60920;48.748;19.142;2023-07-13T05:46:53;31.96;29.48;35.07;;
72805;Laerm;60920;48.748;19.142;2023-07-13T05:49:20;31.43;29.46;35.73;;
72805;Laerm;60920;48.748;19.142;2023-07-13T05:51:45;31.93;29.67;38.44;;
72805;Laerm;60920;48.748;19.142;2023-07-13T05:54:11;33.78;29.71;62.45;;
72805;Laerm;60920;48.748;19.142;2023-07-13T05:56:36;32.52;30.29;47.92;;
72805;Laerm;60920;48.748;19.142;2023-07-13T05:59:01;32.31;29.39;40.85;;
72805;Laerm;60920;48.748;19.142;2023-07-13T06:01:26;32.25;29.59;36.46;;
72805;Laerm;60920;48.748;19.142;2023-07-13T06:03:52;32.06;29.59;35.65;;
72805;Laerm;60920;48.748;19.142;2023-07-13T06:06:17;31.57;29.29;37.07;;
72805;Laerm;60920;48.748;19.142;2023-07-13T06:08:43;31.98;29.33;36.53;;
72805;Laerm;60920;48.748;19.142;2023-07-13T06:11:15;32.26;30.03;37.02;;
72805;Laerm;60920;48.748;19.142;2023-07-13T06:13:41;32.94;29.61;40.85;;
72805;Laerm;60920;48.748;19.142;2023-07-13T06:16:07;33.01;30.13;40.94;;
72805;Laerm;60920;48.748;19.142;2023-07-13T06:18:34;32.84;30.53;38.22;;
72805;Laerm;60920;48.748;19.142;2023-07-13T06:21:01;33.13;30.05;38.05;;
72805;Laerm;60920;48.748;19.142;2023-07-13T06:23:26;32.62;29.92;41.91;;
72805;Laerm;60920;48.748;19.142;2023-07-13T06:25:52;32.90;30.02;37.24;;
72805;Laerm;60920;48.748;19.142;2023-07-13T06:28:17;32.86;30.39;39.23;;
72805;Laerm;60920;48.748;19.142;2023-07-13T06:30:42;32.52;30.29;36.54;;
72805;Laerm;60920;48.748;19.142;2023-07-13T06:33:07;32.51;30.46;40.09;;
72805;Laerm;60920;48.748;19.142;2023-07-13T06:35:33;32.42;30.10;37.67;;
72805;Laerm;60920;48.748;19.142;2023-07-13T06:37:58;32.87;30.29;38.55;;
72805;Laerm;60920;48.748;19.142;2023-07-13T06:40:24;32.73;30.21;39.09;;
72805;Laerm;60920;48.748;19.142;2023-07-13T06:42:49;32.92;30.23;38.76;;
72805;Laerm;60920;48.748;19.142;2023-07-13T06:45:14;33.27;30.28;37.74;;
72805;Laerm;60920;48.748;19.142;2023-07-13T06:47:39;32.86;30.31;38.15;;
72805;Laerm;60920;48.748;19.142;2023-07-13T06:50:05;33.41;30.26;44.46;;
72805;Laerm;60920;48.748;19.142;2023-07-13T06:52:30;32.40;30.07;36.52;;
72805;Laerm;60920;48.748;19.142;2023-07-13T06:54:56;32.73;30.37;38.77;;
72805;Laerm;60920;48.748;19.142;2023-07-13T06:57:21;32.80;30.30;38.30;;
72805;Laerm;60920;48.748;19.142;2023-07-13T06:59:46;32.50;30.12;40.18;;
72805;Laerm;60920;48.748;19.142;2023-07-13T07:02:12;32.46;30.22;38.45;;
72805;Laerm;60920;48.748;19.142;2023-07-13T07:04:37;32.68;30.13;36.87;;
72805;Laerm;60920;48.748;19.142;2023-07-13T07:07:05;33.41;30.24;40.32;;
72805;Laerm;60920;48.748;19.142;2023-07-13T07:09:30;33.63;30.60;41.38;;
72805;Laerm;60920;48.748;19.142;2023-07-13T07:11:56;32.96;30.51;37.54;;
72805;Laerm;60920;48.748;19.142;2023-07-13T07:14:22;33.31;31.09;37.44;;
72805;Laerm;60920;48.748;19.142;2023-07-13T07:16:47;33.05;30.37;38.01;;
72805;Laerm;60920;48.748;19.142;2023-07-13T07:19:12;34.12;31.81;41.82;;
72805;Laerm;60920;48.748;19.142;2023-07-13T07:21:38;34.51;31.96;45.34;;
72805;Laerm;60920;48.748;19.142;2023-07-13T07:24:03;34.16;31.84;40.85;;
72805;Laerm;60920;48.748;19.142;2023-07-13T07:26:29;34.47;32.18;39.79;;
72805;Laerm;60920;48.748;19.142;2023-07-13T07:28:55;35.61;31.85;46.62;;
72805;Laerm;60920;48.748;19.142;2023-07-13T07:31:20;34.22;32.56;38.09;;
72805;Laerm;60920;48.748;19.142;2023-07-13T07:33:45;34.56;32.84;38.46;;
72805;Laerm;60920;48.748;19.142;2023-07-13T07:36:11;34.87;33.07;39.16;;
72805;Laerm;60920;48.748;19.142;2023-07-13T07:38:37;34.59;32.76;37.51;;
72805;Laerm;60920;48.748;19.142;2023-07-13T07:41:05;34.82;32.72;41.93;;
72805;Laerm;60920;48.748;19.142;2023-07-13T07:43:30;35.04;32.61;40.48;;
72805;Laerm;60920;48.748;19.142;2023-07-13T07:45:57;35.47;32.63;47.19;;
72805;Laerm;60920;48.748;19.142;2023-07-13T07:48:22;35.42;33.35;38.08;;
72805;Laerm;60920;48.748;19.142;2023-07-13T07:50:47;35.28;33.66;39.91;;
72805;Laerm;60920;48.748;19.142;2023-07-13T07:53:12;35.22;33.42;37.54;;
72805;Laerm;60920;48.748;19.142;2023-07-13T07:55:38;35.65;33.88;41.84;;
72805;Laerm;60920;48.748;19.142;2023-07-13T07:58:04;35.78;33.65;39.46;;
72805;Laerm;60920;48.748;19.142;2023-07-13T08:00:29;35.97;34.08;42.01;;
72805;Laerm;60920;48.748;19.142;2023-07-13T08:02:57;35.46;33.20;38.09;;
72805;Laerm;60920;48.748;19.142;2023-07-13T08:05:22;35.58;33.48;41.76;;
72805;Laerm;60920;48.748;19.142;2023-07-13T08:07:48;35.12;33.51;38.12;;
72805;Laerm;60920;48.748;19.142;2023-07-13T08:10:13;35.14;33.37;37.46;;
72805;Laerm;60920;48.748;19.142;2023-07-13T08:12:39;35.09;32.37;38.42;;
72805;Laerm;60920;48.748;19.142;2023-07-13T08:15:05;34.23;32.29;38.55;;
72805;Laerm;60920;48.748;19.142;2023-07-13T08:17:31;34.50;31.74;37.63;;
72805;Laerm;60920;48.748;19.142;2023-07-13T08:19:56;33.85;31.55;40.11;;
72805;Laerm;60920;48.748;19.142;2023-07-13T08:22:21;34.58;31.51;46.40;;
72805;Laerm;60920;48.748;19.142;2023-07-13T08:24:47;33.74;31.66;38.92;;
72805;Laerm;60920;48.748;19.142;2023-07-13T08:27:20;34.32;32.05;38.35;;
72805;Laerm;60920;48.748;19.142;2023-07-13T08:29:45;33.95;31.96;36.94;;
72805;Laerm;60920;48.748;19.142;2023-07-13T08:32:12;34.45;32.18;38.57;;
72805;Laerm;60920;48.748;19.142;2023-07-13T08:34:37;34.28;32.51;38.49;;
72805;Laerm;60920;48.748;19.142;2023-07-13T08:37:03;34.27;32.24;44.31;;
72805;Laerm;60920;48.748;19.142;2023-07-13T08:39:29;34.30;32.06;37.85;;
72805;Laerm;60920;48.748;19.142;2023-07-13T08:41:57;33.97;32.00;36.39;;
72805;Laerm;60920;48.748;19.142;2023-07-13T08:44:31;33.72;31.73;36.09;;
72805;Laerm;60920;48.748;19.142;2023-07-13T08:47:03;34.19;32.24;39.03;;
72805;Laerm;60920;48.748;19.142;2023-07-13T08:49:29;34.27;32.35;41.21;;
72805;Laerm;60920;48.748;19.142;2023-07-13T08:54:27;34.30;32.11;37.64;;
72805;Laerm;60920;48.748;19.142;2023-07-13T08:56:54;33.54;31.70;37.05;;
72805;Laerm;60920;48.748;19.142;2023-07-13T08:59:24;34.15;32.06;37.69;;
72805;Laerm;60920;48.748;19.142;2023-07-13T09:01:54;34.20;32.25;36.69;;
72805;Laerm;60920;48.748;19.142;2023-07-13T09:04:32;34.46;32.47;37.73;;
72805;Laerm;60920;48.748;19.142;2023-07-13T09:12:25;33.19;31.10;36.66;;
72805;Laerm;60920;48.748;19.142;2023-07-13T09:14:52;32.92;30.73;37.35;;
72805;Laerm;60920;48.748;19.142;2023-07-13T09:17:24;32.79;30.56;35.75;;
72805;Laerm;60920;48.748;19.142;2023-07-13T09:19:58;32.99;30.98;36.14;;
72805;Laerm;60920;48.748;19.142;2023-07-13T09:22:25;33.18;31.02;39.71;;
72805;Laerm;60920;48.748;19.142;2023-07-13T09:24:57;33.29;31.00;46.27;;
72805;Laerm;60920;48.748;19.142;2023-07-13T09:27:30;33.07;31.10;36.33;;
72805;Laerm;60920;48.748;19.142;2023-07-13T09:30:04;33.09;30.84;41.47;;
72805;Laerm;60920;48.748;19.142;2023-07-13T09:32:36;33.16;31.10;35.55;;
72805;Laerm;60920;48.748;19.142;2023-07-13T09:35:05;32.84;30.53;39.36;;
72805;Laerm;60920;48.748;19.142;2023-07-13T09:37:33;32.99;30.92;36.81;;
72805;Laerm;60920;48.748;19.142;2023-07-13T09:40:00;32.92;31.02;35.87;;
72805;Laerm;60920;48.748;19.142;2023-07-13T09:42:27;33.08;30.78;38.40;;
72805;Laerm;60920;48.748;19.142;2023-07-13T09:47:20;32.42;30.34;34.83;;
72805;Laerm;60920;48.748;19.142;2023-07-13T09:49:49;33.20;30.42;38.54;;
72805;Laerm;60920;48.748;19.142;2023-07-13T09:52:19;33.06;31.06;36.80;;
72805;Laerm;60920;48.748;19.142;2023-07-13T09:54:45;32.88;30.53;39.74;;
72805;Laerm;60920;48.748;19.142;2023-07-13T09:57:17;33.16;31.02;39.08;;
72805;Laerm;60920;48.748;19.142;2023-07-13T09:59:45;32.71;30.68;36.83;;
72805;Laerm;60920;48.748;19.142;2023-07-13T10:02:28;32.68;30.59;36.59;;
72805;Laerm;60920;48.748;19.142;2023-07-13T10:04:58;32.94;30.47;45.50;;
72805;Laerm;60920;48.748;19.142;2023-07-13T10:07:23;33.37;30.36;42.79;;
72805;Laerm;60920;48.748;19.142;2023-07-13T10:09:55;33.25;30.23;40.93;;
72805;Laerm;60920;48.748;19.142;2023-07-13T10:12:21;33.02;30.50;39.90;;
72805;Laerm;60920;48.748;19.142;2023-07-13T10:14:48;32.87;30.19;36.77;;
72805;Laerm;60920;48.748;19.142;2023-07-13T10:17:15;33.05;30.72;38.28;;
72805;Laerm;60920;48.748;19.142;2023-07-13T10:19:45;32.70;30.38;43.12;;
72805;Laerm;60920;48.748;19.142;2023-07-13T10:22:19;32.13;29.61;35.43;;
72805;Laerm;60920;48.748;19.142;2023-07-13T10:24:47;33.15;30.15;40.26;;
72805;Laerm;60920;48.748;19.142;2023-07-13T10:27:17;32.24;30.01;36.25;;
72805;Laerm;60920;48.748;19.142;2023-07-13T10:29:45;32.78;29.60;39.01;;
72805;Laerm;60920;48.748;19.142;2023-07-13T10:32:11;32.09;29.36;36.79;;
72805;Laerm;60920;48.748;19.142;2023-07-13T10:34:37;32.10;29.53;39.86;;
72805;Laerm;60920;48.748;19.142;2023-07-13T10:37:04;32.31;29.82;37.15;;
72805;Laerm;60920;48.748;19.142;2023-07-13T10:39:30;32.38;29.72;35.94;;
72805;Laerm;60920;48.748;19.142;2023-07-13T10:41:59;31.73;29.26;35.59;;
72805;Laerm;60920;48.748;19.142;2023-07-13T10:44:26;31.90;29.05;35.58;;
72805;Laerm;60920;48.748;19.142;2023-07-13T10:46:54;31.40;28.74;40.29;;
72805;Laerm;60920;48.748;19.142;2023-07-13T10:49:20;31.68;28.55;42.00;;
72805;Laerm;60920;48.748;19.142;2023-07-13T10:51:47;33.41;28.94;50.42;;
72805;Laerm;60920;48.748;19.142;2023-07-13T10:54:20;36.02;28.55;54.98;;
72805;Laerm;60920;48.748;19.142;2023-07-13T10:56:49;37.38;28.57;60.94;;
72805;Laerm;60920;48.748;19.142;2023-07-13T10:59:17;32.90;28.97;50.11;;
72805;Laerm;60920;48.748;19.142;2023-07-13T11:04:27;33.72;29.25;48.89;;
72805;Laerm;60920;48.748;19.142;2023-07-13T11:06:58;33.99;28.98;52.68;;
72805;Laerm;60920;48.748;19.142;2023-07-13T11:12:00;31.68;28.51;40.96;;
72805;Laerm;60920;48.748;19.142;2023-07-13T11:16:53;31.75;29.17;35.84;;
72805;Laerm;60920;48.748;19.142;2023-07-13T11:30:25;31.53;28.67;40.86;;
72805;Laerm;60920;48.748;19.142;2023-07-13T11:35:31;30.91;27.74;35.72;;
72805;Laerm;60920;48.748;19.142;2023-07-13T11:37:58;31.05;28.48;38.51;;
72805;Laerm;60920;48.748;19.142;2023-07-13T11:40:24;31.97;28.88;40.06;;
72805;Laerm;60920;48.748;19.142;2023-07-13T11:42:58;32.05;29.01;39.84;;
72805;Laerm;60920;48.748;19.142;2023-07-13T11:45:23;32.23;28.68;45.30;;
72805;Laerm;60920;48.748;19.142;2023-07-13T11:47:49;31.80;28.42;39.35;;
72805;Laerm;60920;48.748;19.142;2023-07-13T11:50:19;31.90;28.05;38.71;;
72805;Laerm;60920;48.748;19.142;2023-07-13T11:52:44;31.61;28.05;37.02;;
72805;Laerm;60920;48.748;19.142;2023-07-13T11:55:19;32.94;28.65;44.21;;
72805;Laerm;60920;48.748;19.142;2023-07-13T11:57:46;34.03;27.49;44.80;;
72805;Laerm;60920;48.748;19.142;2023-07-13T12:00:13;32.10;28.63;42.40;;
72805;Laerm;60920;48.748;19.142;2023-07-13T12:02:47;31.80;28.10;41.56;;
72805;Laerm;60920;48.748;19.142;2023-07-13T12:05:15;31.56;28.23;38.27;;
72805;Laerm;60920;48.748;19.142;2023-07-13T12:07:43;33.68;28.73;44.88;;
72805;Laerm;60920;48.748;19.142;2023-07-13T12:12:34;31.11;28.30;36.44;;
72805;Laerm;60920;48.748;19.142;2023-07-13T12:15:00;31.76;27.77;40.05;;
72805;Laerm;60920;48.748;19.142;2023-07-13T12:17:25;32.06;29.23;37.96;;
72805;Laerm;60920;48.748;19.142;2023-07-13T12:19:51;31.10;28.08;37.47;;
72805;Laerm;60920;48.748;19.142;2023-07-13T12:22:18;31.59;28.39;35.96;;
72805;Laerm;60920;48.748;19.142;2023-07-13T12:24:45;31.37;28.66;36.98;;
72805;Laerm;60920;48.748;19.142;2023-07-13T12:27:28;31.73;28.61;38.17;;
72805;Laerm;60920;48.748;19.142;2023-07-13T12:29:58;31.85;29.06;42.25;;
72805;Laerm;60920;48.748;19.142;2023-07-13T12:32:24;32.49;29.52;54.38;;
72805;Laerm;60920;48.748;19.142;2023-07-13T12:34:57;32.82;29.75;39.60;;
72805;Laerm;60920;48.748;19.142;2023-07-13T12:37:23;32.47;29.45;36.53;;
72805;Laerm;60920;48.748;19.142;2023-07-13T12:39:48;32.42;29.88;37.99;;
72805;Laerm;60920;48.748;19.142;2023-07-13T12:42:25;32.33;28.94;38.00;;
72805;Laerm;60920;48.748;19.142;2023-07-13T12:44:58;32.05;29.74;35.08;;
72805;Laerm;60920;48.748;19.142;2023-07-13T12:47:25;33.18;30.11;40.03;;
72805;Laerm;60920;48.748;19.142;2023-07-13T12:49:53;32.23;29.51;40.34;;
72805;Laerm;60920;48.748;19.142;2023-07-13T12:52:23;31.69;29.19;36.33;;
72805;Laerm;60920;48.748;19.142;2023-07-13T12:54:55;32.08;29.37;38.13;;
72805;Laerm;60920;48.748;19.142;2023-07-13T12:57:24;32.20;29.54;37.89;;
72805;Laerm;60920;48.748;19.142;2023-07-13T12:59:53;32.13;29.93;35.51;;
72805;Laerm;60920;48.748;19.142;2023-07-13T13:04:50;31.59;28.65;36.59;;
72805;Laerm;60920;48.748;19.142;2023-07-13T13:07:16;31.77;28.60;36.93;;
72805;Laerm;60920;48.748;19.142;2023-07-13T13:09:42;31.35;28.48;40.07;;
72805;Laerm;60920;48.748;19.142;2023-07-13T13:12:08;31.75;29.14;39.38;;
72805;Laerm;60920;48.748;19.142;2023-07-13T13:14:33;32.12;29.03;40.66;;
72805;Laerm;60920;48.748;19.142;2023-07-13T13:16:58;31.55;27.59;43.33;;
72805;Laerm;60920;48.748;19.142;2023-07-13T13:19:26;31.94;29.20;37.31;;
72805;Laerm;60920;48.748;19.142;2023-07-13T13:21:52;31.60;28.59;38.22;;
72805;Laerm;60920;48.748;19.142;2023-07-13T13:24:19;31.56;28.26;40.66;;
72805;Laerm;60920;48.748;19.142;2023-07-13T13:26:45;31.65;28.77;37.25;;
72805;Laerm;60920;48.748;19.142;2023-07-13T13:29:11;31.92;28.46;39.92;;
72805;Laerm;60920;48.748;19.142;2023-07-13T13:31:38;31.32;27.62;44.49;;
72805;Laerm;60920;48.748;19.142;2023-07-13T13:34:04;33.48;29.27;49.53;;
72805;Laerm;60920;48.748;19.142;2023-07-13T13:36:32;31.57;28.57;36.53;;
72805;Laerm;60920;48.748;19.142;2023-07-13T13:38:57;31.79;29.58;35.47;;
72805;Laerm;60920;48.748;19.142;2023-07-13T13:41:23;32.41;29.18;38.19;;
72805;Laerm;60920;48.748;19.142;2023-07-13T13:43:49;33.52;29.39;45.08;;
72805;Laerm;60920;48.748;19.142;2023-07-13T13:46:17;32.42;29.51;43.33;;
72805;Laerm;60920;48.748;19.142;2023-07-13T13:48:43;32.82;29.61;43.75;;
72805;Laerm;60920;48.748;19.142;2023-07-13T13:51:13;33.30;30.25;37.77;;
72805;Laerm;60920;48.748;19.142;2023-07-13T13:53:39;32.46;29.42;38.67;;
72805;Laerm;60920;48.748;19.142;2023-07-13T13:56:04;31.69;28.14;39.92;;
72805;Laerm;60920;48.748;19.142;2023-07-13T13:58:30;32.00;29.13;37.94;;
72805;Laerm;60920;48.748;19.142;2023-07-13T14:00:56;32.28;29.14;38.00;;
72805;Laerm;60920;48.748;19.142;2023-07-13T14:03:21;32.64;29.56;39.86;;
72805;Laerm;60920;48.748;19.142;2023-07-13T14:05:47;32.00;27.96;41.73;;
72805;Laerm;60920;48.748;19.142;2023-07-13T14:08:18;32.51;29.53;43.56;;